Garden City, Iowa
Current Conditions -  °F | °C
As of 1:35 AM on Thursday 23 Oct 2014 (Local Time) from KIFA Reporting Station
Moderate Rain Moderate Rain  
Wind Chill: 51°   Ceiling: 7000
Heat Index: 51°   Visibility: 10mi
Dew Point: 46°   Wind: 10mph
Humidity: 83%   Direction: 150°SSE
Pressure: 30.08"   Gusts: NA
Location:  42.25°N, 93.4°W
Report Text: KIFA 230635Z AUTO 15009KT 10SM RA SCT050 BKN070 OVC075 10/08 A3008 RMK AO2 P0004 T01030076
Loading
Personal Weather Stations






























Interactive Weather Map
Tropical Storm Tracking
New forecast layout! Learn more

10-Day Weather Forecast

Advertisements
Track Severe Weather on mobile